Date,TemperatureHighF,TemperatureAvgF,TemperatureLowF,DewpointHighF,DewpointAvgF,DewpointLowF,HumidityHigh,HumidityAvg,HumidityLow,PressureMaxIn,PressureMinIn,WindSpeedMaxMPH,WindSpeedAvgMPH,GustSpeedMaxMPH,PrecipitationSumIn
2013-1-1,79,60,44,60,53,43,98,81,50,30.25,30.06,6,1,13,0.00
2013-1-2,82,65,49,68,60,48,98,85,56,30.08,29.99,4,1,10,0.00
2013-1-3,72,63,56,66,61,54,98,94,81,30.21,30.05,7,1,13,0.14
2013-1-4,57,55,51,56,54,50,98,97,95,30.31,30.19,5,2,12,0.16
2013-1-5,73,60,47,60,54,46,95,83,63,30.33,30.22,5,2,10,0.00
2013-1-6,81,66,57,70,62,55,97,87,61,30.24,30.08,5,1,9,0.04
2013-1-7,67,60,52,59,55,49,96,85,63,30.26,30.15,8,3,14,0.23
2013-1-8,82,68,58,71,64,57,98,88,60,30.26,30.16,6,2,11,0.00
2013-1-9,84,72,66,71,68,65,98,87,61,30.33,30.21,8,2,12,0.00
2013-1-10,84,72,64,71,65,61,98,83,46,30.33,30.24,8,3,14,0.00
2013-1-11,83,68,55,70,62,54,98,83,56,30.28,30.17,8,2,13,0.00
2013-1-12,83,68,53,69,61,52,99,80,48,30.21,30.11,7,2,13,0.01
2013-1-13,83,69,54,68,62,53,98,81,53,30.19,30.09,4,1,10,0.00
2013-1-14,82,68,55,68,61,54,98,80,48,30.21,30.13,5,1,11,0.00
2013-1-15,83,69,55,69,61,54,98,79,47,30.17,30.07,7,2,12,0.00
2013-1-16,84,67,56,66,60,53,98,81,45,30.13,30.02,3,0,8,0.00
2013-1-17,73,59,49,68,55,41,98,86,69,30.15,30.01,7,2,15,0.02
2013-1-18,65,51,36,53,44,32,87,76,63,30.33,30.16,11,4,21,0.00
2013-1-19,74,61,51,60,54,47,92,80,58,30.32,30.17,9,4,14,0.00
2013-1-20,74,63,56,61,57,54,96,82,62,30.22,30.08,7,2,12,0.00
2013-1-21,77,64,57,59,55,51,90,73,52,30.13,30.02,4,1,8,0.00
2013-1-22,62,53,39,51,40,35,93,64,37,30.31,30.09,6,2,15,0.00
2013-1-23,68,47,30,43,34,27,95,67,27,30.40,30.30,5,1,10,0.00
2013-1-24,76,53,34,52,43,32,97,74,38,30.35,30.24,4,0,9,0.00
2013-1-25,78,57,40,58,47,37,97,74,38,30.33,30.19,4,1,10,0.00
2013-1-26,78,56,36,59,48,34,98,78,44,30.30,30.18,2,0,8,0.00
2013-1-27,80,59,46,64,53,44,98,84,45,30.34,30.25,7,1,14,0.01
2013-1-28,80,68,56,66,61,54,98,82,57,30.36,30.25,8,2,15,0.00
2013-1-29,84,70,56,69,63,55,98,82,51,30.27,30.11,7,3,12,0.00
2013-1-30,85,73,64,67,64,61,95,75,50,30.13,29.90,9,4,18,0.00
2013-1-31,70,55,41,65,41,22,95,64,21,30.27,29.89,6,1,16,0.06
2013-2-1,72,49,36,36,31,22,92,57,17,30.39,30.26,4,1,10,0.00
2013-2-2,74,47,30,46,35,29,96,70,22,30.34,30.17,5,1,10,0.00
2013-2-3,73,51,29,51,39,28,96,69,31,30.22,30.08,3,1,10,0.00
2013-2-4,72,48,29,49,35,27,97,67,26,30.16,30.06,4,1,13,0.00
2013-2-5,79,56,30,52,43,29,96,68,33,30.13,30.02,3,0,9,0.00
2013-2-6,77,64,51,62,56,48,93,77,54,30.14,30.05,3,1,9,0.00
2013-2-7,82,70,58,65,62,56,96,76,51,30.10,29.86,10,3,16,0.00
2013-2-8,83,68,50,65,58,46,94,74,41,30.11,29.89,3,1,9,0.00
2013-2-9,75,58,43,55,50,42,98,78,49,30.23,30.09,7,3,13,0.00
2013-2-10,80,65,47,59,54,45,96,73,45,30.29,30.17,9,4,20,0.00
2013-2-11,84,69,56,64,59,54,96,74,44,30.23,30.08,8,2,15,0.00
2013-2-12,86,71,56,68,62,54,98,78,44,30.11,29.94,6,2,13,0.00
2013-2-13,84,71,61,70,66,59,95,87,58,30.00,29.85,9,3,21,0.82
2013-2-14,67,60,55,61,57,53,96,91,69,30.09,29.94,4,1,8,0.39
2013-2-15,73,56,47,56,50,45,97,82,47,30.11,29.98,4,1,9,0.00
2013-2-16,68,53,39,51,42,24,97,70,33,30.17,29.94,6,2,12,0.00
2013-2-17,55,40,26,26,20,10,84,49,17,30.38,30.17,5,1,18,0.00
2013-2-18,69,48,22,46,34,20,96,64,34,30.40,30.24,8,2,17,0.00
2013-2-19,80,60,39,57,50,37,97,73,41,30.25,30.08,6,1,14,0.00
2013-2-20,75,62,50,59,54,46,96,76,50,30.17,30.04,4,1,9,0.00
2013-2-21,84,65,48,63,56,45,96,75,44,30.14,30.00,5,1,13,0.00
2013-2-22,89,73,59,68,63,57,97,75,44,30.10,29.99,8,2,15,0.00
2013-2-23,87,74,64,69,66,62,96,77,46,30.03,29.89,7,2,17,0.00
2013-2-24,79,70,64,71,67,62,97,91,75,29.98,29.89,3,1,8,0.01
2013-2-25,87,72,60,71,64,59,98,80,48,29.94,29.78,6,1,11,0.00
2013-2-26,79,69,62,71,64,59,97,87,53,29.88,29.74,6,2,15,0.78
2013-2-27,78,64,51,60,54,47,95,74,38,30.00,29.88,3,1,11,0.00
2013-2-28,75,58,42,56,47,40,97,72,35,30.02,29.91,4,1,11,0.00
2013-3-1,69,53,42,45,39,29,95,63,25,30.04,29.92,3,1,10,0.00
2013-3-2,60,49,35,37,33,28,89,56,31,30.07,29.98,6,2,18,0.00
2013-3-3,54,42,28,32,29,24,90,63,42,30.18,30.03,4,1,12,0.00
2013-3-4,67,45,25,37,27,22,96,60,21,30.26,30.14,7,1,12,0.00
2013-3-5,79,58,32,57,43,30,96,64,30,30.21,30.03,6,2,14,0.00
2013-3-6,68,57,44,61,40,28,93,56,24,30.17,29.94,5,2,14,0.00
2013-3-7,69,50,32,40,34,28,91,60,28,30.26,30.15,5,1,11,0.00
2013-3-8,77,53,29,46,37,28,96,62,20,30.26,30.13,5,1,11,0.00
2013-3-9,76,57,36,51,45,35,97,69,35,30.26,30.16,8,2,12,0.00
2013-3-10,79,64,47,56,52,46,96,70,39,30.21,30.09,11,4,19,0.00
2013-3-11,80,66,47,59,55,45,97,72,47,30.14,29.91,10,2,19,0.00
2013-3-12,74,64,53,65,60,50,94,86,73,30.06,29.87,6,2,14,0.08
2013-3-13,77,58,42,50,40,28,96,59,18,30.20,30.06,5,1,13,0.01
2013-3-14,69,53,35,43,33,24,85,54,20,30.31,30.19,6,2,14,0.00
2013-3-15,75,51,29,47,34,26,96,61,23,30.32,30.16,5,1,11,0.00
2013-3-16,83,58,36,52,40,34,97,60,21,30.21,30.06,4,1,12,0.00
2013-3-17,80,60,40,59,49,35,97,72,39,30.16,30.01,7,1,13,0.01
2013-3-18,80,69,58,66,62,56,95,79,58,30.07,29.92,5,2,11,0.08
2013-3-19,88,72,60,65,61,58,98,73,37,30.05,29.91,5,1,12,0.00
2013-3-20,78,66,55,66,60,51,96,82,61,30.00,29.81,6,1,11,0.18
2013-3-21,74,57,41,55,41,27,97,64,18,30.00,29.89,5,1,11,0.01
2013-3-22,81,58,37,61,47,35,97,73,32,30.04,29.92,8,2,15,0.23
2013-3-23,86,72,60,72,66,58,97,82,55,30.01,29.79,9,2,18,0.07
2013-3-24,82,72,65,73,68,62,96,87,72,29.85,29.64,11,4,28,0.50
2013-3-25,74,62,48,63,45,28,95,59,21,30.06,29.73,4,1,11,0.00
2013-3-26,62,50,36,41,29,20,83,47,21,30.27,30.06,5,2,14,0.00
2013-3-27,66,48,34,37,32,27,87,59,23,30.34,30.23,5,1,12,0.00
2013-3-28,74,52,30,42,33,26,96,58,18,30.33,30.20,5,1,11,0.00
2013-3-29,76,55,34,52,36,31,96,58,20,30.36,30.21,6,1,13,0.00
2013-3-30,83,60,39,54,45,37,96,63,31,30.29,30.13,5,1,12,0.00
2013-3-31,84,66,51,56,52,47,95,66,31,30.19,30.01,6,2,15,0.00
2013-4-1,87,70,54,65,60,50,94,74,41,30.04,29.96,6,1,16,0.00
2013-4-2,88,70,53,64,54,48,97,65,27,30.12,30.02,7,2,10,0.00
2013-4-3,86,70,53,66,61,48,97,77,46,30.11,29.97,11,3,18,0.61
2013-4-4,73,69,65,68,66,63,96,91,80,30.05,29.88,13,2,22,0.10
2013-4-5,79,68,56,67,61,54,96,82,46,30.03,29.82,8,2,15,0.00
2013-4-6,78,64,50,59,55,48,94,73,49,30.17,30.02,9,4,16,0.00
2013-4-7,84,68,51,63,57,50,98,71,38,30.19,30.08,8,3,14,0.00
2013-4-8,88,71,53,65,58,51,97,67,35,30.16,30.07,7,2,25,0.00
2013-4-9,86,71,56,68,60,54,98,72,44,30.19,30.09,8,3,15,0.00
2013-4-10,91,73,52,69,61,51,97,72,37,30.15,29.99,8,2,14,0.00
2013-4-11,92,78,71,72,70,67,95,76,47,30.02,29.83,10,4,19,0.34
2013-4-12,83,76,71,74,71,68,96,87,67,29.92,29.83,7,2,15,0.00
2013-4-13,92,76,64,71,66,57,98,72,39,30.01,29.90,5,1,8,0.00
2013-4-14,90,74,63,74,66,57,90,77,55,30.01,29.85,8,2,13,0.15
2013-4-15,95,76,64,68,64,60,91,69,41,30.10,29.91,6,1,11,0.00
2013-4-16,89,76,65,72,67,61,97,76,53,30.18,30.07,8,3,15,0.00
2013-4-17,86,72,58,70,64,57,98,78,44,30.18,30.06,9,3,18,0.00
2013-4-18,92,76,59,71,64,58,98,71,39,30.09,29.96,6,2,13,0.00
2013-4-19,92,78,68,75,70,64,98,77,50,30.03,29.92,11,3,20,0.28
2013-4-20,75,63,57,70,60,54,95,90,80,30.19,29.97,7,2,11,0.23
2013-4-21,78,67,58,69,63,56,96,88,74,30.18,30.06,6,3,12,0.25
2013-4-22,77,68,63,69,65,60,97,91,74,30.12,30.02,9,3,18,0.01
2013-4-23,82,70,60,65,60,57,96,75,46,30.14,30.04,8,3,14,0.00
2013-4-24,90,70,50,64,58,48,98,70,32,30.17,30.08,5,1,10,0.00
2013-4-25,92,75,56,68,61,54,97,67,37,30.22,30.13,3,0,11,0.00
2013-4-26,89,75,58,67,63,56,96,69,42,30.26,30.17,8,2,15,0.00
2013-4-27,86,73,59,69,63,58,98,74,44,30.25,30.11,7,2,13,0.00
2013-4-28,86,72,58,68,63,56,98,75,42,30.16,30.00,10,3,17,0.00
2013-4-29,88,75,59,68,64,58,96,71,47,30.05,29.92,7,1,13,0.00
2013-4-30,90,75,65,69,66,62,96,77,45,30.03,29.92,11,1,15,0.13
2013-5-1,78,70,65,71,67,64,97,93,75,30.04,29.96,8,2,17,0.58
2013-5-2,71,68,66,69,67,65,97,95,91,29.99,29.84,6,2,12,1.68
2013-5-3,82,71,64,71,67,63,98,88,65,29.85,29.74,9,3,16,0.54
2013-5-4,87,73,66,72,68,64,97,84,58,29.81,29.69,9,1,18,0.04
2013-5-5,82,69,56,66,52,42,94,61,30,29.95,29.77,5,2,12,0.01
2013-5-6,79,66,50,58,54,48,95,67,39,30.03,29.90,3,1,11,0.00
2013-5-7,82,65,48,60,55,46,97,72,40,30.07,29.98,5,1,12,0.00
2013-5-8,87,69,52,65,57,51,97,71,38,30.15,30.04,3,1,12,0.00
2013-5-9,90,71,52,67,59,51,97,71,37,30.17,30.08,3,0,8,0.00
2013-5-10,94,75,56,72,64,55,97,73,40,30.16,30.01,9,2,13,0.00
2013-5-11,93,75,62,74,67,60,97,79,48,30.07,29.99,6,1,15,0.04
2013-5-12,92,76,64,72,66,62,96,73,44,30.06,29.97,4,1,12,0.00
2013-5-13,88,71,54,64,56,45,97,65,28,30.16,30.02,5,1,11,0.00
2013-5-14,84,67,43,55,48,41,95,58,27,30.24,30.14,5,2,13,0.00
2013-5-15,88,71,50,62,54,47,96,61,29,30.24,30.09,6,2,13,0.00
2013-5-16,89,76,57,65,61,55,97,64,37,30.15,30.02,6,2,10,0.00
2013-5-17,92,77,58,68,63,57,96,65,34,30.13,30.04,8,2,12,0.00
2013-5-18,96,80,62,73,66,61,97,69,35,30.14,30.00,8,2,16,0.12
2013-5-19,95,78,70,75,70,67,96,80,42,30.11,29.99,13,2,15,0.01
2013-5-20,94,78,67,73,68,64,93,76,45,30.10,30.00,12,2,20,0.00
2013-5-21,88,75,64,74,68,62,98,82,54,30.05,29.97,8,2,14,0.00
2013-5-22,90,74,63,74,69,62,98,85,52,30.00,29.91,8,1,12,0.09
2013-5-23,97,78,63,75,68,62,98,76,44,30.02,29.93,5,1,11,0.01
2013-5-24,99,80,64,76,66,58,98,69,28,30.11,29.98,4,1,11,0.04
2013-5-25,89,75,59,70,62,57,97,66,41,30.22,30.09,8,3,15,0.00
2013-5-26,89,71,50,64,56,48,96,64,28,30.24,30.15,8,2,13,0.00
2013-5-27,89,73,55,65,60,54,97,68,39,30.21,30.11,9,4,17,0.00
2013-5-28,91,76,60,71,66,58,96,74,48,30.18,30.07,11,4,20,0.00
2013-5-29,87,77,68,74,70,66,96,82,56,30.15,30.07,14,4,23,0.16
2013-5-30,88,78,71,76,71,68,96,80,58,30.14,30.05,15,5,23,0.07
2013-5-31,88,78,69,73,70,67,95,77,57,30.13,30.04,11,5,19,0.01
2013-6-1,91,79,69,75,72,68,97,79,55,30.09,29.97,10,4,15,0.00
2013-6-2,99,85,72,76,73,70,97,70,43,30.04,29.87,10,2,19,0.17
2013-6-3,94,78,70,78,73,69,98,85,52,30.02,29.91,5,1,13,0.68
2013-6-4,91,76,72,76,73,70,97,89,59,30.05,29.94,7,1,19,1.12
2013-6-5,88,76,72,76,72,70,96,88,60,30.04,29.92,11,2,16,0.00
2013-6-6,81,75,71,77,72,70,97,91,79,29.92,29.64,10,6,19,2.06
2013-6-7,94,81,70,75,72,69,96,76,53,29.97,29.77,6,2,15,0.00
2013-6-8,96,77,71,77,72,70,97,86,52,30.12,29.97,5,1,8,0.90
2013-6-9,94,79,70,78,73,69,98,86,55,30.12,30.03,11,2,16,0.13
2013-6-10,97,82,71,78,74,70,98,79,47,30.12,30.02,4,1,10,0.01
2013-6-11,94,78,70,78,73,68,97,86,56,30.10,30.03,5,1,13,0.05
2013-6-12,99,84,69,78,73,68,98,74,42,30.10,30.00,3,0,6,0.01
2013-6-13,98,84,71,78,73,69,97,72,44,30.05,29.91,4,1,9,0.00
2013-6-14,96,83,72,76,73,70,96,74,44,29.96,29.86,4,1,9,0.00
2013-6-15,90,79,74,78,74,71,96,87,66,30.09,29.93,6,2,11,1.30
2013-6-16,94,81,74,78,75,72,96,82,55,30.11,30.02,7,2,11,0.24
2013-6-17,101,82,71,80,75,68,97,81,43,30.09,29.99,7,1,16,1.35
2013-6-18,96,81,71,79,74,70,98,81,53,30.08,29.97,4,0,8,0.09
2013-6-19,94,80,72,79,74,70,97,84,61,30.06,29.97,6,1,8,0.47
2013-6-20,99,80,70,78,72,68,98,80,45,30.10,30.02,12,1,20,0.08
2013-6-21,92,77,68,76,72,67,98,85,58,30.13,30.06,7,1,15,0.01
2013-6-22,96,78,70,77,73,69,98,86,48,30.14,30.08,4,1,10,2.05
2013-6-23,93,79,69,78,74,69,98,84,53,30.17,30.09,11,1,16,0.54
2013-6-24,92,81,72,77,74,71,98,79,54,30.21,30.09,8,2,11,0.00
2013-6-25,95,83,71,77,73,63,96,74,36,30.17,30.05,6,2,11,0.00
2013-6-26,98,81,72,78,73,69,98,79,43,30.10,30.01,9,1,17,0.04
2013-6-27,100,81,69,77,73,68,98,79,47,30.06,29.95,3,0,8,0.00
2013-6-28,94,80,72,78,74,71,96,82,53,29.99,29.84,6,1,14,0.01
2013-6-29,90,80,74,78,74,72,97,84,60,29.89,29.80,6,2,15,0.10
2013-6-30,90,78,74,78,74,72,96,88,65,29.89,29.82,5,1,15,0.20
2013-7-1,85,77,72,76,73,71,96,89,71,30.04,29.87,6,2,14,0.08
2013-7-2,90,78,72,80,73,70,97,87,65,30.11,29.99,11,2,16,0.02
2013-7-3,92,78,72,78,74,71,97,87,60,30.14,30.07,8,2,16,0.09
2013-7-4,92,78,70,79,73,68,98,84,58,30.18,30.09,9,2,15,0.01
2013-7-5,90,78,70,80,74,68,98,87,57,30.17,30.08,13,2,23,0.14
2013-7-6,92,82,72,77,74,71,98,78,55,30.14,30.05,9,4,15,0.00
2013-7-7,93,82,71,77,73,69,97,76,50,30.16,30.05,8,3,14,0.00
2013-7-8,94,81,70,77,73,69,98,78,52,30.18,30.09,7,2,11,0.00
2013-7-9,93,81,68,77,71,67,98,74,46,30.19,30.08,6,2,10,0.00
2013-7-10,97,81,68,76,71,67,98,74,45,30.11,29.97,6,1,10,0.00
2013-7-11,97,81,72,77,73,70,96,78,44,30.05,29.92,3,1,9,0.18
2013-7-12,88,78,71,78,74,70,97,87,65,29.98,29.90,4,0,9,1.01
2013-7-13,93,78,72,77,73,71,97,85,52,30.02,29.92,6,1,12,0.01
2013-7-14,93,78,71,76,74,70,97,86,57,30.11,29.99,12,2,20,0.04
2013-7-15,90,77,70,77,73,69,98,88,58,30.14,30.04,9,1,10,0.46
2013-7-16,89,77,71,78,73,70,97,87,62,30.18,30.12,11,2,19,0.25
2013-7-17,91,79,70,78,73,69,98,84,57,30.19,30.09,10,3,18,0.01
2013-7-18,88,78,70,76,73,69,98,85,59,30.14,30.06,7,2,12,0.00
2013-7-19,91,77,71,77,72,69,97,87,61,30.15,30.05,5,1,12,0.38
2013-7-20,94,78,72,80,74,71,98,88,60,30.12,30.02,6,0,16,0.14
2013-7-21,97,78,70,81,72,-100,99,85,53,30.14,30.04,3,-12,10,0.00
2013-7-22,94,80,73,80,75,72,98,87,59,30.13,30.07,4,1,10,0.28
2013-7-23,85,76,72,78,74,72,99,94,81,30.11,29.97,3,0,8,0.38
2013-7-24,90,79,73,80,76,71,99,89,69,30.01,29.89,4,1,12,0.68
2013-7-25,89,79,71,79,75,70,98,88,66,30.00,29.88,2,0,12,1.03
2013-7-26,98,82,72,80,75,71,99,82,50,30.03,29.96,3,0,8,0.03
2013-7-27,100,84,71,80,74,70,99,76,43,30.02,29.90,1,0,9,0.01
2013-7-28,97,79,70,79,74,70,99,85,52,30.08,29.95,4,0,8,0.00
2013-7-29,98,82,68,78,73,68,98,76,44,30.17,30.04,9,1,14,0.01
2013-7-30,97,83,71,79,74,70,98,77,42,30.19,30.08,6,1,11,0.01
2013-7-31,99,82,72,80,74,70,99,81,45,30.15,30.01,7,1,13,0.94
2013-8-1,96,80,72,78,74,70,99,85,46,30.07,29.97,4,1,12,0.00
2013-8-2,96,82,71,79,74,70,99,78,50,30.05,29.96,3,0,7,0.00
2013-8-3,98,81,73,80,75,72,98,84,51,30.11,30.01,5,0,13,0.62
2013-8-4,95,80,74,81,77,73,99,89,59,30.10,30.00,3,0,9,0.48
2013-8-5,98,83,74,82,77,73,98,84,57,30.03,29.92,2,0,9,0.56
2013-8-6,98,82,72,81,75,71,99,82,52,30.00,29.91,8,1,13,0.01
2013-8-7,95,82,75,80,77,74,99,86,56,29.99,29.93,8,1,12,0.00
2013-8-8,96,83,75,79,76,72,98,81,48,30.06,29.96,9,2,16,0.00
2013-8-9,94,80,73,79,75,70,98,85,58,30.08,29.99,6,1,19,0.16
2013-8-10,98,83,70,79,75,70,99,79,48,30.15,30.05,6,1,12,0.01
2013-8-11,97,85,72,79,75,71,99,74,46,30.17,30.07,4,1,8,0.00
2013-8-12,95,83,71,79,75,70,98,77,54,30.14,30.01,3,1,9,0.00
2013-8-13,100,84,72,79,75,71,97,77,47,30.07,29.94,3,0,8,0.00
2013-8-14,102,81,72,80,75,71,98,84,46,30.03,29.91,7,0,14,0.13
2013-8-15,97,82,72,80,74,71,98,81,49,30.05,29.93,3,0,9,0.05
2013-8-16,95,83,74,80,76,73,98,80,50,30.07,29.98,3,0,8,0.00
2013-8-17,96,81,74,80,75,71,98,84,56,30.11,29.99,6,1,13,0.02
2013-8-18,93,81,72,80,75,72,99,84,59,30.12,30.03,8,2,17,0.21
2013-8-19,96,81,72,80,75,72,99,85,50,30.11,29.98,6,1,10,0.00
2013-8-20,94,81,71,79,74,70,99,81,50,30.12,30.00,7,2,15,0.00
2013-8-21,94,78,72,80,74,70,99,89,57,30.13,30.06,11,2,18,0.61
2013-8-22,96,79,74,80,76,71,99,91,57,30.11,30.02,10,1,17,0.24
2013-8-23,94,78,71,80,75,71,99,92,60,30.05,29.98,6,1,11,0.90
2013-8-24,92,78,71,81,74,70,100,90,62,30.13,30.02,10,1,18,0.63
2013-8-25,90,79,72,78,75,71,99,89,65,30.19,30.10,11,2,19,0.00
2013-8-26,89,79,73,79,75,72,99,88,65,30.17,30.04,8,2,16,0.12
2013-8-27,90,79,71,76,72,68,98,80,55,30.09,30.01,7,2,11,0.01
2013-8-28,94,80,67,76,70,66,98,75,43,30.08,29.99,3,0,7,0.00
2013-8-29,99,81,68,77,72,67,98,77,42,30.06,29.94,2,0,7,0.08
2013-8-30,99,82,70,79,73,69,98,77,45,30.01,29.89,5,0,9,0.01
2013-8-31,95,81,72,79,74,71,98,81,53,29.99,29.89,5,0,12,0.03
2013-9-1,98,82,70,78,73,68,98,77,43,30.01,29.90,8,0,14,0.00
2013-9-2,100,82,69,78,73,68,98,77,43,30.03,29.93,5,0,9,0.00
2013-9-3,97,83,68,78,74,67,99,77,46,30.04,29.93,3,0,8,0.00
2013-9-4,99,80,70,79,74,69,98,82,44,30.11,29.99,6,1,16,0.01
2013-9-5,97,81,68,79,72,67,99,78,47,30.12,30.01,4,1,12,0.01
2013-9-6,98,77,70,79,72,69,99,86,51,30.07,29.98,13,1,22,1.69
2013-9-7,94,77,70,78,72,69,99,86,52,30.04,29.95,6,1,14,0.00
2013-9-8,93,79,66,77,71,66,99,81,51,30.00,29.90,6,1,10,0.00
2013-9-9,92,78,64,75,70,64,99,77,44,30.06,29.96,6,2,12,0.00
2013-9-10,91,79,68,74,71,67,98,79,47,30.12,30.02,8,3,14,0.00
2013-9-11,92,80,72,76,73,69,98,80,54,30.11,30.01,8,3,14,0.00
2013-9-12,95,78,69,78,72,68,99,84,50,30.06,29.90,7,1,13,0.04
2013-9-13,98,79,67,77,71,66,99,80,45,29.93,29.81,1,0,5,0.01
2013-9-14,96,82,70,77,73,69,98,77,48,30.00,29.85,5,0,9,0.00
2013-9-15,94,79,70,79,74,70,99,84,52,30.10,29.99,11,2,17,0.00
2013-9-16,94,79,68,77,72,68,99,83,50,30.11,29.99,7,2,15,0.00
2013-9-17,93,80,69,77,72,68,99,80,52,30.08,29.97,8,3,14,0.00
2013-9-18,90,79,72,76,73,70,96,82,58,30.07,29.99,9,3,17,0.00
2013-9-19,92,79,70,76,72,68,98,81,49,30.08,29.99,7,2,15,0.00
2013-9-20,92,77,64,74,68,63,98,76,46,30.06,29.92,6,2,11,0.00
2013-9-21,94,78,64,76,69,63,98,76,45,29.97,29.77,4,0,7,0.00
2013-9-22,93,78,73,78,74,70,98,87,57,29.88,29.77,5,1,11,0.08
2013-9-23,83,75,72,78,74,71,99,96,81,29.98,29.85,8,1,14,1.59
2013-9-24,84,76,72,78,74,70,99,95,78,29.97,29.85,5,1,10,0.61
2013-9-25,84,76,71,75,73,70,98,92,73,29.86,29.79,6,1,15,0.19
2013-9-26,93,81,71,80,73,64,99,80,41,29.90,29.79,5,1,10,0.61
2013-9-27,83,74,68,74,70,66,97,88,68,29.99,29.88,7,1,11,0.14
2013-9-28,85,75,68,74,71,67,99,87,65,30.03,29.95,8,3,14,0.01
2013-9-29,90,76,66,73,69,65,98,81,50,30.02,29.92,7,2,11,0.00
2013-9-30,90,77,66,75,70,65,99,81,49,30.03,29.93,6,1,10,0.00
2013-10-1,89,78,68,74,71,67,98,80,55,30.09,30.00,8,2,12,0.00
2013-10-2,89,76,64,71,68,64,98,79,55,30.09,30.01,6,2,11,0.00
2013-10-3,93,77,64,75,69,63,99,79,48,30.10,30.00,5,1,11,0.00
2013-10-4,92,78,66,75,70,65,99,79,48,30.11,30.01,4,1,7,0.00
2013-10-5,91,76,64,76,70,63,99,83,53,30.09,29.98,7,1,13,0.06
2013-10-6,95,78,66,77,70,65,99,81,42,30.01,29.86,6,1,12,0.01
2013-10-7,85,76,69,78,73,68,99,92,77,29.90,29.75,4,1,12,0.49
2013-10-8,91,78,72,77,73,69,98,88,62,29.99,29.79,7,1,16,0.00
2013-10-9,80,71,65,70,67,64,95,87,71,30.08,29.97,7,2,13,0.00
2013-10-10,87,72,60,69,64,58,98,80,49,30.09,29.99,4,1,10,0.00
2013-10-11,93,72,58,71,63,57,99,77,43,30.07,29.96,1,0,4,0.00
2013-10-12,91,72,57,69,62,56,98,75,38,30.07,29.99,3,0,6,0.00
2013-10-13,87,72,56,70,62,55,98,74,40,30.11,30.01,4,0,10,0.00
2013-10-14,86,72,60,70,65,58,98,81,52,30.08,29.96,6,1,14,0.00
2013-10-15,80,72,63,71,68,62,97,89,75,30.03,29.92,2,0,10,0.00
2013-10-16,90,76,68,72,69,65,96,81,50,30.00,29.91,1,0,5,0.00
2013-10-17,91,75,62,76,68,62,99,81,50,30.01,29.91,2,0,6,0.00
2013-10-18,93,77,63,76,69,62,99,79,48,30.01,29.91,5,1,11,0.00
2013-10-19,93,78,66,75,71,65,99,81,51,29.98,29.88,4,0,10,0.00
2013-10-20,87,78,70,76,72,67,98,84,61,30.00,29.89,6,1,12,0.00
2013-10-21,97,79,69,78,72,66,98,82,49,30.02,29.92,3,0,6,0.00
2013-10-22,92,78,68,77,72,67,99,82,51,29.97,29.83,4,1,11,0.02
2013-10-23,84,72,58,70,62,50,97,75,36,30.04,29.83,3,1,9,0.01
2013-10-24,71,61,50,55,50,46,94,69,48,30.20,30.04,4,1,10,0.00
2013-10-25,81,62,43,57,51,42,98,71,38,30.27,30.17,5,1,9,0.00
2013-10-26,79,62,46,58,51,44,98,72,36,30.24,30.12,3,0,8,0.00
2013-10-27,79,60,42,61,50,42,98,74,35,30.17,30.08,4,1,11,0.00
2013-10-28,87,63,42,64,54,41,98,76,40,30.22,30.13,3,0,8,0.00
2013-10-29,85,68,52,66,61,51,99,80,50,30.26,30.17,8,2,14,0.00
2013-10-30,86,71,59,69,64,58,99,80,52,30.26,30.13,6,2,12,0.00
2013-10-31,88,73,59,71,64,58,99,76,43,30.16,29.99,7,2,15,0.00
2013-11-1,89,77,68,73,68,64,97,77,44,30.03,29.88,5,1,13,0.00
2013-11-2,73,68,57,72,66,56,97,94,86,30.00,29.82,3,1,9,1.02
2013-11-3,75,62,52,59,53,46,99,74,40,30.15,29.99,7,2,14,0.01
2013-11-4,80,68,61,65,59,54,92,73,45,30.21,30.13,11,4,21,0.00
2013-11-5,84,72,64,68,66,62,97,83,54,30.19,30.11,11,4,19,0.02
2013-11-6,83,70,61,70,66,59,98,86,59,30.15,30.06,7,2,13,0.00
2013-11-7,82,70,60,70,66,59,98,89,60,30.09,29.99,2,0,5,0.00
2013-11-8,76,66,59,65,60,52,99,81,66,30.16,30.02,7,3,15,0.00
2013-11-9,81,67,54,66,60,53,98,80,56,30.21,30.13,9,2,16,0.00
2013-11-10,82,70,57,68,63,55,98,82,52,30.20,30.10,6,1,11,0.00
2013-11-11,82,69,59,68,63,57,98,84,56,30.20,30.09,5,1,9,0.00
2013-11-12,82,68,56,69,63,55,99,84,60,30.15,30.02,3,0,8,0.01
2013-11-13,65,58,50,57,49,45,85,72,58,30.36,30.11,11,6,22,0.00
2013-11-14,76,59,44,58,51,43,95,77,50,30.34,30.21,9,2,16,0.00
2013-11-15,74,63,50,64,60,49,98,91,68,30.23,30.10,4,1,8,0.15
2013-11-16,74,68,64,71,67,63,98,95,85,30.17,30.06,5,1,11,0.12
2013-11-17,87,75,67,73,70,67,98,86,60,30.11,30.01,6,1,12,0.00
2013-11-18,84,73,63,73,68,62,99,85,65,30.06,29.93,2,0,7,0.01
2013-11-19,76,68,61,69,62,55,98,82,55,30.02,29.90,5,2,11,0.00
2013-11-20,78,69,61,72,66,59,96,90,75,30.14,30.00,6,2,10,0.04
2013-11-21,79,71,66,71,68,66,98,92,73,30.22,30.12,8,3,14,0.43
2013-11-22,82,71,60,72,67,58,98,87,68,30.23,30.13,8,2,13,0.01
2013-11-23,84,70,57,70,64,56,99,83,49,30.14,30.03,4,0,8,0.00
2013-11-24,68,62,57,65,56,50,96,81,69,30.28,30.05,10,5,19,0.00
2013-11-25,75,66,59,60,56,52,87,71,52,30.28,30.11,10,5,18,0.00
2013-11-26,82,72,62,73,68,59,96,88,70,30.11,29.75,9,3,18,0.27
2013-11-27,73,59,38,71,54,35,97,85,67,30.24,29.71,5,2,13,0.72
2013-11-28,62,47,31,49,40,28,88,78,60,30.39,30.24,5,2,11,0.00
2013-11-29,70,57,48,59,52,45,95,83,65,30.41,30.31,9,4,15,0.00
2013-11-30,75,62,53,64,58,50,96,87,68,30.35,30.22,8,3,15,0.00
2013-12-1,73,62,56,65,60,55,98,91,71,30.23,30.00,3,1,10,0.00
2013-12-2,76,62,54,62,56,50,98,83,41,30.00,29.84,2,0,8,0.00
2013-12-3,79,62,47,62,56,46,98,82,54,30.01,29.90,4,0,9,0.00
2013-12-4,86,68,54,71,62,53,99,84,46,30.11,29.99,3,0,7,0.00
2013-12-5,84,69,55,69,63,54,99,82,54,30.19,30.10,7,1,12,0.00
2013-12-6,86,72,59,72,66,58,99,83,54,30.20,30.10,8,1,16,0.01
2013-12-7,85,70,59,71,63,58,99,82,51,30.26,30.16,3,0,8,0.00
2013-12-8,84,69,56,71,63,55,98,83,51,30.25,30.12,7,1,13,0.00
2013-12-9,84,71,59,72,65,57,98,85,60,30.20,30.10,5,1,12,0.00
2013-12-10,86,72,55,70,64,53,98,80,52,30.22,30.08,6,1,13,0.00
2013-12-11,82,67,56,68,60,52,92,79,62,30.29,30.17,7,2,12,0.00
2013-12-12,68,59,46,60,47,32,94,68,27,30.36,30.23,8,3,14,0.00
2013-12-13,75,57,39,56,49,35,97,78,46,30.31,30.15,8,2,13,0.00
2013-12-14,83,70,51,70,64,49,97,84,63,30.15,29.94,10,2,18,0.00
2013-12-15,73,65,49,70,61,47,96,86,67,30.15,29.87,6,1,13,0.57
2013-12-16,62,49,34,51,43,32,96,80,44,30.26,30.15,4,1,9,0.00
2013-12-17,70,49,33,50,42,32,97,79,47,30.29,30.18,4,1,10,0.00
2013-12-18,68,48,32,47,40,31,97,77,44,30.32,30.23,5,1,10,0.00
2013-12-19,75,52,31,58,44,30,98,80,39,30.31,30.20,5,1,10,0.00
2013-12-20,82,63,45,64,56,44,98,79,50,30.24,30.13,8,2,14,0.01
2013-12-21,85,73,63,71,66,59,97,82,59,30.16,30.04,10,3,18,0.00
2013-12-22,86,74,64,72,68,62,98,83,59,30.16,30.08,6,2,14,0.00
2013-12-23,86,75,64,73,69,63,98,84,56,30.19,30.08,6,1,15,0.00
2013-12-24,72,60,43,70,51,34,97,74,34,30.30,30.11,6,2,14,0.18
2013-12-25,74,56,41,58,48,36,96,75,49,30.29,30.18,8,2,14,0.00
2013-12-26,74,61,55,63,57,54,97,88,67,30.26,30.13,7,2,14,0.00
2013-12-27,66,61,56,62,58,53,95,92,88,30.30,30.20,6,3,11,0.00
2013-12-28,76,69,62,70,66,60,97,90,78,30.26,30.02,8,4,12,0.00
2013-12-29,77,70,59,73,68,58,97,92,82,30.03,29.90,8,2,16,0.25
2013-12-30,69,60,52,59,55,48,98,85,49,30.23,30.01,4,1,11,0.00
2013-12-31,68,59,52,54,51,47,96,76,48,30.34,30.19,6,2,11,0.00
2014-1-1,61,59,55,60,57,52,98,94,83,30.29,30.09,6,2,12,0.07
2014-1-2,80,66,56,72,64,54,99,96,73,30.09,29.84,8,1,17,0.53